IK5NLA Vaiano IT current weather conditions

sailwx.info

Wind from 256 at 6 knots gusting 7

Air temperature 20.6° C
Dewpoint 16.2° C

Last reported at 2014-Aug-19 10:36 UTC.
Time now 2014-Aug-20 10:51 UTC

Location: N 43°58' E 011°06'.
View on Google Maps.

See reports from other nearby stations

  
Tides and Currents Weather Stations Pressure Air Temp Water Temp Dewpoint Dewpoint Depression Visibility Wind Speed Wind Dir Waves Ship Positions
date/time (UTC)wind fromknots sea level pressurealtimeterstation pressurevisibilityair tempwater tempwave heightnotes
2014-Aug-19 10:36 256 6 gusting 7 20.6
2014-Aug-19 10:26 173 6 gusting 7 20.6
2014-Aug-19 10:16 214 5 gusting 6 20.6
2014-Aug-19 10:06 229 5 gusting 5 20.0
2014-Aug-19 09:57 196 8 gusting 10 20.6
2014-Aug-19 09:46 270 3 gusting 3 20.0
2014-Aug-19 09:37 195 8 gusting 8 19.4
2014-Aug-19 09:26 250 7 gusting 7 19.4
2014-Aug-19 09:16 257 8 gusting 8 19.4
2014-Aug-19 09:06 200 8 gusting 10 19.4
2014-Aug-19 08:56 219 2 gusting 3 19.4
2014-Aug-19 08:47 213 6 gusting 7 18.9
2014-Aug-19 08:36 254 6 gusting 6 18.3
2014-Aug-19 08:26 227 6 gusting 6 18.3
2014-Aug-19 08:16 214 2 gusting 3 17.8
2014-Aug-19 08:06 218 5 gusting 5 17.8
2014-Aug-19 07:56 227 2 gusting 2 17.8
2014-Aug-19 07:46 192 0 gusting 0 17.8
2014-Aug-19 07:36 158 1 gusting 1 17.2
2014-Aug-19 07:26 158 0 gusting 0 17.2
2014-Aug-19 07:16 028 0 gusting 0 17.2
2014-Aug-19 07:06 028 16.7
2014-Aug-19 06:56 028 16.7
2014-Aug-19 06:46 088 17.2
2014-Aug-19 06:36 088 16.7
2014-Aug-19 06:26 088 16.7
2014-Aug-19 06:16 088 16.7
2014-Aug-19 06:06 088 16.7
2014-Aug-19 05:56 088 0 gusting 0 16.7
2014-Aug-19 05:46 088 0 gusting 0 16.7
2014-Aug-19 05:36 317 0 gusting 1 16.1
2014-Aug-19 05:26 312 16.1
2014-Aug-19 05:16 013 2 gusting 3 15.6
2014-Aug-19 05:06 037 3 gusting 3 15.6
2014-Aug-19 04:56 024 2 gusting 2 15.6
2014-Aug-19 04:46 028 1 gusting 1 15.6
2014-Aug-19 04:36 017 2 gusting 2 15.6
2014-Aug-19 04:26 355 2 gusting 2 15.0
2014-Aug-19 04:16 036 2 gusting 3 15.0
2014-Aug-19 04:06 071 0 gusting 0 15.0
2014-Aug-19 03:56 071 0 gusting 1 15.6
2014-Aug-19 03:46 341 0 gusting 1 16.1
2014-Aug-19 03:36 246 2 gusting 2 16.1
2014-Aug-19 03:26 284 8 gusting 8 16.7
2014-Aug-19 03:16 284 6 gusting 7 16.7
2014-Aug-19 03:06 276 6 gusting 7 16.1
2014-Aug-19 02:56 229 6 gusting 6 16.1
2014-Aug-19 02:46 252 7 gusting 8 16.1
2014-Aug-19 02:36 259 4 gusting 5 16.7
2014-Aug-19 02:26 250 6 gusting 6 16.7
2014-Aug-19 02:16 252 3 gusting 5 17.2
2014-Aug-19 02:06 269 3 gusting 5 16.7
2014-Aug-19 01:56 256 5 gusting 5 16.7
2014-Aug-19 01:46 271 5 gusting 5 16.7
2014-Aug-19 01:36 285 2 gusting 3 16.7
2014-Aug-19 01:26 274 2 gusting 3 16.1
2014-Aug-19 01:16 290 2 gusting 2 16.7
2014-Aug-19 01:06 347 2 gusting 2 16.1
2014-Aug-19 00:56 346 1 gusting 1 16.1
2014-Aug-19 00:46 347 1 gusting 1 16.1
2014-Aug-19 00:36 348 2 gusting 2 16.1
2014-Aug-19 00:26 336 2 gusting 2 16.1
2014-Aug-19 00:16 306 2 gusting 2 16.1
2014-Aug-19 00:06 292 2 gusting 2 16.1
2014-Aug-18 23:56 288 2 gusting 2 16.1
2014-Aug-18 23:46 291 2 gusting 4 16.1
2014-Aug-18 23:36 284 4 gusting 4 16.1
2014-Aug-18 23:26 279 2 gusting 3 16.1
2014-Aug-18 23:16 271 2 gusting 2 16.1
2014-Aug-18 23:06 269 2 gusting 2 16.1
2014-Aug-18 22:56 267 2 gusting 3 16.7
2014-Aug-18 22:46 281 1 gusting 2 16.7
2014-Aug-18 22:36 271 3 gusting 3 16.1
2014-Aug-18 22:26 253 2 gusting 2 16.1
2014-Aug-18 22:16 298 2 gusting 4 16.7
2014-Aug-18 22:06 117 16.7
2014-Aug-18 21:56 156 17.2
2014-Aug-18 21:46 169 0 gusting 0 17.2
2014-Aug-18 21:37 144 1 gusting 1 17.2
2014-Aug-18 21:26 061 3 gusting 3 17.2
2014-Aug-18 21:16 076 2 gusting 3 16.7
2014-Aug-18 21:06 015 2 gusting 2 17.2
2014-Aug-18 20:56 094 0 gusting 0 17.8
2014-Aug-18 20:46 144 2 gusting 5 17.2
2014-Aug-18 20:36 051 0 gusting 1 17.2
2014-Aug-18 20:26 042 1 gusting 1 17.2
2014-Aug-18 20:16 117 3 gusting 4 17.8
2014-Aug-18 20:06 072 17.2
2014-Aug-18 19:56 122 1 gusting 1 17.8
2014-Aug-18 19:46 111 1 gusting 2 17.8
2014-Aug-18 19:36 166 3 gusting 3 17.8
2014-Aug-18 19:26 102 3 gusting 3 18.3
2014-Aug-18 19:16 313 0 gusting 0 18.3
2014-Aug-18 19:06 225 3 gusting 3 17.8
2014-Aug-18 18:56 194 2 gusting 4 17.8
2014-Aug-18 18:46 308 1 gusting 1 18.3
2014-Aug-18 18:36 110 18.3
2014-Aug-18 18:26 138 2 gusting 6 18.3
2014-Aug-18 18:16 200 2 gusting 2 18.3
2014-Aug-18 18:06 200 1 gusting 2 18.9
2014-Aug-18 17:56 086 2 gusting 2 18.9
2014-Aug-18 17:46 190 19.4
2014-Aug-18 17:36 180 1 gusting 2 19.4
2014-Aug-18 17:26 199 0 gusting 0 19.4
2014-Aug-18 17:16 186 1 gusting 1 19.4
2014-Aug-18 17:06 271 3 gusting 5 20.0
2014-Aug-18 16:56 238 11 gusting 11 20.0
2014-Aug-18 16:46 248 8 gusting 11 20.0
2014-Aug-18 16:36 250 1 gusting 2 20.6
2014-Aug-18 16:26 307 3 gusting 3 21.1
2014-Aug-18 16:16 215 3 gusting 3 21.1
2014-Aug-18 16:06 230 2 gusting 4 21.1
2014-Aug-18 15:57 232 8 gusting 9 21.1
2014-Aug-18 15:46 212 2 gusting 5 21.1
2014-Aug-18 15:36 281 5 gusting 9 21.1
2014-Aug-18 15:26 285 5 gusting 12 21.1
2014-Aug-18 15:16 289 6 gusting 14 21.1
2014-Aug-18 15:06 263 1 gusting 4 21.1
2014-Aug-18 14:56 228 13 gusting 13 21.1
2014-Aug-18 14:46 230 10 gusting 12 21.1
2014-Aug-18 14:36 184 5 gusting 5 21.1
2014-Aug-18 14:26 196 3 gusting 6 21.1
2014-Aug-18 14:16 213 8 gusting 8 21.1
2014-Aug-18 14:06 161 4 gusting 6 21.7
2014-Aug-18 13:56 295 7 gusting 13 21.1
2014-Aug-18 13:46 207 9 gusting 10 21.1
2014-Aug-18 13:36 274 8 gusting 10 21.7
2014-Aug-18 13:26 192 8 gusting 8 21.1
2014-Aug-18 13:16 255 3 gusting 3 21.1
2014-Aug-18 13:06 227 6 gusting 8 21.1
2014-Aug-18 12:56 232 14 gusting 14 21.1
2014-Aug-18 12:46 179 6 gusting 8 21.1
2014-Aug-18 12:36 215 6 gusting 8 21.1
2014-Aug-18 12:26 202 10 gusting 10 21.1
2014-Aug-18 12:16 238 6 gusting 8 20.6
2014-Aug-18 12:06 224 6 gusting 8 20.6
2014-Aug-18 11:56 254 5 gusting 7 20.6
2014-Aug-18 11:46 200 4 gusting 6 20.6
2014-Aug-18 11:36 246 9 gusting 9 20.0
2014-Aug-18 11:26 182 9 gusting 13 20.0
2014-Aug-18 11:16 199 7 gusting 8 20.0
2014-Aug-18 11:07 198 8 gusting 8 20.0
2014-Aug-18 10:56 248 14 gusting 14 20.0
2014-Aug-18 10:46 275 6 gusting 6 20.0
2014-Aug-18 10:36 219 5 gusting 8 20.0
2014-Aug-18 10:26 207 8 gusting 8 19.4
2014-Aug-18 10:16 171 2 gusting 4 19.4